createdAt,value
2023-05-20T00:00:32.671Z,4.43
2023-05-20T00:02:59.183Z,3.77
2023-05-20T00:05:26.148Z,6.53
2023-05-20T00:07:52.788Z,3.43
2023-05-20T00:10:19.287Z,4.43
2023-05-20T00:12:46.082Z,3.77
2023-05-20T00:15:12.981Z,3.33
2023-05-20T00:17:39.888Z,3.93
2023-05-20T00:20:07.478Z,5.23
2023-05-20T00:22:34.011Z,4.47
2023-05-20T00:25:00.941Z,4.93
2023-05-20T00:27:27.434Z,4.40
2023-05-20T00:29:54.296Z,5.27
2023-05-20T00:32:21.002Z,6.13
2023-05-20T00:34:59.701Z,3.40
2023-05-20T00:37:26.575Z,4.53
2023-05-20T00:39:53.476Z,6.67
2023-05-20T00:42:28.788Z,6.10
2023-05-20T00:44:55.847Z,5.87
2023-05-20T00:47:28.847Z,3.60
2023-05-20T00:49:56.331Z,3.93
2023-05-20T00:52:23.109Z,6.30
2023-05-20T00:54:50.382Z,5.60
2023-05-20T00:57:17.374Z,7.60
2023-05-20T00:59:44.917Z,3.97
2023-05-20T01:02:11.722Z,6.97
2023-05-20T01:04:38.704Z,5.00
2023-05-20T01:07:06.879Z,3.90
2023-05-20T01:09:34.171Z,6.27
2023-05-20T01:12:17.342Z,6.23
2023-05-20T01:15:03.925Z,5.27
2023-05-20T01:17:32.845Z,6.53
2023-05-20T01:20:00.293Z,6.53
2023-05-20T01:22:28.038Z,6.20
2023-05-20T01:24:54.926Z,5.17
2023-05-20T01:27:22.592Z,7.07
2023-05-20T01:29:51.237Z,4.73
2023-05-20T01:32:27.830Z,5.30
2023-05-20T01:34:55.565Z,4.17
2023-05-20T01:37:23.377Z,4.47
2023-05-20T01:39:51.995Z,4.97
2023-05-20T01:42:20.022Z,6.37
2023-05-20T01:44:47.105Z,6.83
2023-05-20T01:47:13.881Z,4.60
2023-05-20T01:49:40.421Z,5.20
2023-05-20T01:52:07.459Z,8.50
2023-05-20T01:54:34.382Z,8.07
2023-05-20T01:57:01.155Z,6.27
2023-05-20T01:59:27.964Z,3.97
2023-05-20T02:01:54.926Z,8.70
2023-05-20T02:04:21.958Z,7.27
2023-05-20T02:06:48.927Z,7.60
2023-05-20T02:09:15.452Z,8.30
2023-05-20T02:11:42.319Z,5.97
2023-05-20T02:14:09.038Z,6.27
2023-05-20T02:16:35.596Z,5.63
2023-05-20T02:19:02.580Z,8.60
2023-05-20T02:21:29.090Z,6.40
2023-05-20T02:23:55.982Z,9.50
2023-05-20T02:26:22.492Z,6.37
2023-05-20T02:28:49.379Z,4.77
2023-05-20T02:31:16.209Z,5.80
2023-05-20T02:33:43.081Z,7.07
2023-05-20T02:36:09.551Z,11.60
2023-05-20T02:38:36.439Z,7.23
2023-05-20T02:41:02.926Z,6.77
2023-05-20T02:43:29.676Z,6.53
2023-05-20T02:45:56.170Z,8.33
2023-05-20T02:48:23.050Z,7.30
2023-05-20T02:50:49.534Z,8.13
2023-05-20T02:53:16.422Z,8.53
2023-05-20T02:55:42.908Z,6.70
2023-05-20T02:58:09.727Z,6.97
2023-05-20T03:00:36.245Z,5.03
2023-05-20T03:03:02.855Z,7.70
2023-05-20T03:05:29.771Z,6.50
2023-05-20T03:07:56.291Z,7.20
2023-05-20T03:10:23.182Z,7.47
2023-05-20T03:12:49.708Z,6.67
2023-05-20T03:15:16.627Z,7.67
2023-05-20T03:17:43.212Z,7.13
2023-05-20T03:20:10.674Z,7.87
2023-05-20T03:22:37.155Z,7.27
2023-05-20T03:25:05.263Z,8.10
2023-05-20T03:27:31.765Z,9.37
2023-05-20T03:29:58.249Z,8.10
2023-05-20T03:32:25.111Z,4.73
2023-05-20T03:34:51.595Z,6.83
2023-05-20T03:37:18.333Z,7.60
2023-05-20T03:39:45.169Z,8.10
2023-05-20T03:42:11.670Z,6.13
2023-05-20T03:44:38.517Z,8.00
2023-05-20T03:47:05.280Z,6.57
2023-05-20T03:49:32.183Z,5.33
2023-05-20T03:51:58.757Z,6.93
2023-05-20T03:54:25.764Z,8.83
2023-05-20T03:56:52.668Z,11.27
2023-05-20T03:59:19.386Z,5.97
2023-05-20T04:01:46.135Z,7.97
2023-05-20T04:04:12.723Z,8.37
2023-05-20T04:06:39.750Z,8.50
2023-05-20T04:09:07.232Z,5.57
2023-05-20T04:11:33.773Z,9.23
2023-05-20T04:14:00.642Z,8.00
2023-05-20T04:16:27.272Z,8.40
2023-05-20T04:18:54.125Z,8.33
2023-05-20T04:21:20.675Z,7.70
2023-05-20T04:23:47.708Z,6.97
2023-05-20T04:26:14.208Z,7.27
2023-05-20T04:28:40.879Z,7.80
2023-05-20T04:31:08.293Z,5.10
2023-05-20T04:33:34.787Z,7.87
2023-05-20T04:36:01.653Z,7.97
2023-05-20T04:38:29.450Z,7.00
2023-05-20T04:41:02.931Z,6.13
2023-05-20T04:43:30.321Z,10.10
2023-05-20T04:45:58.034Z,6.60
2023-05-20T04:48:24.746Z,8.20
2023-05-20T04:50:52.056Z,7.83
2023-05-20T04:53:19.111Z,8.57
2023-05-20T04:55:46.630Z,6.03
2023-05-20T04:58:13.143Z,7.67
2023-05-20T05:00:40.011Z,9.17
2023-05-20T05:03:06.865Z,6.80
2023-05-20T05:05:35.396Z,7.23
2023-05-20T05:08:03.503Z,7.10
2023-05-20T05:10:30.019Z,7.13
2023-05-20T05:12:56.810Z,7.70
2023-05-20T05:15:23.591Z,8.43
2023-05-20T05:17:50.511Z,5.30
2023-05-20T05:20:17.907Z,7.63
2023-05-20T05:22:45.344Z,6.10
2023-05-20T05:25:12.804Z,5.23
2023-05-20T05:27:40.059Z,4.43
2023-05-20T05:30:07.286Z,4.90
2023-05-20T05:32:34.664Z,3.77
2023-05-20T05:35:01.254Z,3.90
2023-05-20T05:37:28.086Z,8.20
2023-05-20T05:39:54.961Z,4.37
2023-05-20T05:42:21.878Z,7.60
2023-05-20T05:44:48.808Z,4.50
2023-05-20T05:47:15.923Z,5.70
2023-05-20T05:49:42.475Z,3.80
2023-05-20T05:52:09.368Z,5.33
2023-05-20T05:54:35.878Z,5.10
2023-05-20T05:57:02.771Z,4.63
2023-05-20T05:59:30.563Z,5.70
2023-05-20T06:01:57.491Z,4.57
2023-05-20T06:04:24.160Z,4.40
2023-05-20T06:06:51.102Z,4.63
2023-05-20T06:09:17.600Z,6.00
2023-05-20T06:11:44.496Z,5.03
2023-05-20T06:14:10.980Z,4.07
2023-05-20T06:16:37.839Z,6.00
2023-05-20T06:19:04.644Z,9.30
2023-05-20T06:21:32.228Z,5.13
2023-05-20T06:23:59.242Z,7.37
2023-05-20T06:26:25.718Z,10.23
2023-05-20T06:28:52.220Z,4.53
2023-05-20T06:31:18.767Z,5.43
2023-05-20T06:33:45.838Z,4.50
2023-05-20T06:36:12.343Z,6.77
2023-05-20T06:38:39.231Z,3.37
2023-05-20T06:41:06.075Z,4.30
2023-05-20T06:43:33.418Z,6.67
2023-05-20T06:46:00.301Z,5.43
2023-05-20T06:48:26.870Z,5.20
2023-05-20T06:50:53.758Z,3.97
2023-05-20T06:53:20.247Z,5.97
2023-05-20T06:55:47.458Z,4.70
2023-05-20T06:58:14.299Z,4.37
2023-05-20T07:00:42.856Z,4.50
2023-05-20T07:03:09.955Z,6.20
2023-05-20T07:05:36.646Z,5.57
2023-05-20T07:08:03.580Z,5.50
2023-05-20T07:10:30.139Z,3.87
2023-05-20T07:12:58.022Z,5.00
2023-05-20T07:15:24.514Z,5.10
2023-05-20T07:17:51.183Z,5.13
2023-05-20T07:20:18.204Z,4.50
2023-05-20T07:22:44.740Z,3.93
2023-05-20T07:25:11.953Z,3.37
2023-05-20T07:27:38.505Z,3.77
2023-05-20T07:30:05.480Z,3.63
2023-05-20T07:32:31.993Z,5.30
2023-05-20T07:34:58.686Z,5.10
2023-05-20T07:37:25.250Z,3.80
2023-05-20T07:39:51.761Z,3.53
2023-05-20T07:42:18.618Z,5.87
2023-05-20T07:44:45.535Z,5.13
2023-05-20T07:47:13.224Z,3.30
2023-05-20T07:49:40.118Z,6.07
2023-05-20T07:52:06.774Z,3.70
2023-05-20T07:54:35.053Z,3.50
2023-05-20T07:57:01.722Z,4.13
2023-05-20T07:59:28.676Z,5.53
2023-05-20T08:01:55.209Z,7.80
2023-05-20T08:04:21.753Z,4.77
2023-05-20T08:06:48.276Z,4.43
2023-05-20T08:09:14.923Z,4.87
2023-05-20T08:11:41.476Z,4.57
2023-05-20T08:14:07.987Z,3.47
2023-05-20T08:16:35.882Z,3.90
2023-05-20T08:19:02.591Z,3.80
2023-05-20T08:21:29.331Z,4.00
2023-05-20T08:23:55.899Z,5.50
2023-05-20T08:26:22.762Z,4.13
2023-05-20T08:28:49.634Z,4.87
2023-05-20T08:31:16.165Z,6.30
2023-05-20T08:33:42.708Z,5.63
2023-05-20T08:36:09.221Z,4.00
2023-05-20T08:38:36.142Z,5.20
2023-05-20T08:41:03.931Z,4.20
2023-05-20T08:43:30.734Z,4.20
2023-05-20T08:45:57.291Z,4.43
2023-05-20T08:48:26.337Z,5.17
2023-05-20T08:50:53.533Z,5.30
2023-05-20T08:53:22.366Z,4.57
2023-05-20T08:55:54.400Z,5.47
2023-05-20T08:58:22.599Z,6.03
2023-05-20T09:00:49.516Z,5.70
2023-05-20T09:03:16.074Z,6.37
2023-05-20T09:05:42.651Z,5.70
2023-05-20T09:08:11.956Z,5.30
2023-05-20T09:10:42.461Z,5.63
2023-05-20T09:13:10.479Z,5.87
2023-05-20T09:15:37.802Z,5.23
2023-05-20T09:18:06.595Z,7.77
2023-05-20T09:20:37.275Z,4.67
2023-05-20T09:23:08.479Z,4.50
2023-05-20T09:25:36.495Z,9.57
2023-05-20T09:28:08.082Z,5.10
2023-05-20T09:30:34.823Z,5.70
2023-05-20T09:33:03.826Z,5.90
2023-05-20T09:35:30.797Z,5.50
2023-05-20T09:37:58.457Z,4.93
2023-05-20T09:40:26.880Z,5.50
2023-05-20T09:43:02.005Z,5.43
2023-05-20T09:45:29.738Z,8.77
2023-05-20T09:47:57.094Z,4.10
2023-05-20T09:50:24.897Z,8.83
2023-05-20T09:52:53.148Z,5.93
2023-05-20T09:55:22.309Z,6.27
2023-05-20T09:57:48.937Z,4.47
2023-05-20T10:00:16.645Z,5.27
2023-05-20T10:02:50.838Z,6.27
2023-05-20T10:05:24.007Z,5.13
2023-05-20T10:08:12.592Z,6.07
2023-05-20T10:10:50.226Z,5.60
2023-05-20T10:13:38.263Z,4.10
2023-05-20T10:16:36.931Z,4.20
2023-05-20T10:19:22.397Z,5.00
2023-05-20T10:22:00.154Z,4.70
2023-05-20T10:24:33.281Z,5.67
2023-05-20T10:27:02.256Z,5.57
2023-05-20T10:29:28.968Z,4.63
2023-05-20T10:31:55.794Z,4.40
2023-05-20T10:34:23.413Z,6.60
2023-05-20T10:36:55.815Z,6.87
2023-05-20T10:39:30.070Z,4.23
2023-05-20T10:42:10.670Z,5.07
2023-05-20T10:44:44.475Z,6.20
2023-05-20T10:49:45.215Z,6.90
2023-05-20T10:52:13.867Z,4.67
2023-05-20T10:55:00.391Z,5.23
2023-05-20T10:57:28.569Z,3.43
2023-05-20T10:59:58.144Z,5.40
2023-05-20T11:02:26.049Z,5.03
2023-05-20T11:04:53.474Z,3.97
2023-05-20T11:07:30.316Z,4.83
2023-05-20T11:09:58.132Z,5.63
2023-05-20T11:12:27.217Z,4.17
2023-05-20T11:14:54.307Z,4.33
2023-05-20T11:17:21.489Z,4.63
2023-05-20T11:19:49.008Z,5.50
2023-05-20T11:22:15.863Z,5.23
2023-05-20T11:24:42.808Z,5.53
2023-05-20T11:27:09.764Z,4.83
2023-05-20T11:29:36.802Z,4.57
2023-05-20T11:32:03.781Z,5.17
2023-05-20T11:34:35.220Z,4.40
2023-05-20T11:37:02.163Z,4.67
2023-05-20T11:39:31.443Z,5.70
2023-05-20T11:41:58.539Z,5.37
2023-05-20T11:44:25.777Z,3.97
2023-05-20T11:46:59.238Z,5.97
2023-05-20T11:49:25.968Z,6.17
2023-05-20T11:51:52.508Z,4.03
2023-05-20T11:54:22.840Z,5.77
2023-05-20T11:56:49.971Z,5.63
2023-05-20T11:59:16.640Z,6.87
2023-05-20T12:01:43.161Z,4.57
2023-05-20T12:04:10.700Z,6.93
2023-05-20T12:06:37.847Z,6.13
2023-05-20T12:09:05.683Z,4.33
2023-05-20T12:11:36.105Z,5.77
2023-05-20T12:14:06.122Z,4.90
2023-05-20T12:16:34.106Z,6.03
2023-05-20T12:19:01.568Z,11.57
2023-05-20T12:21:28.997Z,9.07
2023-05-20T12:23:55.947Z,4.43
2023-05-20T12:26:23.615Z,4.40
2023-05-20T12:28:50.891Z,4.10
2023-05-20T12:31:17.809Z,4.37
2023-05-20T12:33:44.479Z,4.00
2023-05-20T12:36:11.022Z,4.27
2023-05-20T12:38:37.944Z,6.07
2023-05-20T12:41:04.885Z,3.40
2023-05-20T12:43:32.082Z,4.30
2023-05-20T12:45:59.164Z,3.93
2023-05-20T12:48:25.670Z,4.10
2023-05-20T12:50:52.829Z,3.30
2023-05-20T12:53:19.311Z,4.53
2023-05-20T12:55:46.110Z,5.77
2023-05-20T12:58:12.617Z,6.13
2023-05-20T13:00:39.632Z,6.77
2023-05-20T13:03:06.293Z,5.27
2023-05-20T13:05:33.404Z,4.70
2023-05-20T13:07:59.890Z,4.60
2023-05-20T13:10:27.016Z,2.97
2023-05-20T13:12:53.989Z,4.43
2023-05-20T13:15:20.488Z,3.63
2023-05-20T13:17:47.407Z,2.67
2023-05-20T13:20:14.024Z,4.27
2023-05-20T13:22:40.916Z,4.63
2023-05-20T13:25:08.027Z,2.70
2023-05-20T13:27:35.007Z,4.03
2023-05-20T13:30:01.687Z,3.40
2023-05-20T13:32:28.704Z,4.43
2023-05-20T13:34:55.231Z,2.83
2023-05-20T13:37:22.022Z,2.93
2023-05-20T13:39:48.535Z,3.70
2023-05-20T13:42:15.025Z,3.63
2023-05-20T13:44:41.845Z,3.10
2023-05-20T13:47:08.788Z,2.77
2023-05-20T13:49:35.706Z,4.43
2023-05-20T13:52:02.549Z,6.97
2023-05-20T13:54:29.038Z,9.80
2023-05-20T13:56:55.838Z,15.27
2023-05-20T13:59:22.347Z,5.90
2023-05-20T14:01:49.318Z,3.17
2023-05-20T14:04:15.860Z,3.13
2023-05-20T14:06:42.707Z,2.77
2023-05-20T14:09:09.329Z,6.13
2023-05-20T14:11:36.739Z,3.67
2023-05-20T14:14:03.242Z,2.50
2023-05-20T14:16:30.777Z,6.17
2023-05-20T14:18:57.421Z,3.37
2023-05-20T14:21:24.325Z,5.27
2023-05-20T14:23:51.214Z,4.00
2023-05-20T14:26:17.699Z,3.40
2023-05-20T14:28:44.603Z,3.57
2023-05-20T14:31:11.215Z,3.53
2023-05-20T14:33:38.113Z,2.67
2023-05-20T14:36:04.883Z,2.53
2023-05-20T14:38:31.383Z,3.13
2023-05-20T14:40:58.196Z,4.90
2023-05-20T14:43:24.692Z,3.43
2023-05-20T14:45:52.783Z,3.50
2023-05-20T14:48:19.678Z,2.93
2023-05-20T14:50:47.686Z,3.77
2023-05-20T14:53:17.144Z,2.97
2023-05-20T14:55:43.723Z,4.27
2023-05-20T14:58:10.755Z,3.90
2023-05-20T15:00:37.448Z,5.40
2023-05-20T15:03:04.713Z,4.03
2023-05-20T15:05:31.336Z,3.17
2023-05-20T15:07:58.349Z,3.97
2023-05-20T15:10:24.839Z,2.97
2023-05-20T15:12:51.703Z,4.87
2023-05-20T15:15:18.282Z,4.67
2023-05-20T15:17:45.220Z,4.77
2023-05-20T15:20:12.392Z,3.53
2023-05-20T15:22:39.317Z,3.07
2023-05-20T15:25:05.962Z,3.50
2023-05-20T15:27:32.888Z,3.37
2023-05-20T15:29:59.678Z,2.50
2023-05-20T15:32:26.280Z,2.70
2023-05-20T15:34:53.279Z,3.07
2023-05-20T15:37:19.795Z,6.53
2023-05-20T15:39:46.693Z,3.33
2023-05-20T15:42:13.263Z,3.83
2023-05-20T15:44:40.921Z,3.80
2023-05-20T15:47:07.623Z,2.83
2023-05-20T15:49:34.128Z,3.37
2023-05-20T15:52:03.575Z,2.57
2023-05-20T15:54:30.973Z,2.73
2023-05-20T15:56:57.845Z,4.00
2023-05-20T15:59:24.466Z,2.37
2023-05-20T16:01:51.408Z,3.13
2023-05-20T16:04:19.389Z,3.60
2023-05-20T16:06:46.711Z,2.60
2023-05-20T16:09:13.369Z,3.00
2023-05-20T16:11:39.886Z,3.80
2023-05-20T16:14:06.384Z,4.00
2023-05-20T16:16:35.870Z,2.90
2023-05-20T16:19:03.174Z,3.57
2023-05-20T16:21:29.763Z,3.33
2023-05-20T16:23:56.593Z,3.10
2023-05-20T16:26:24.664Z,4.13
2023-05-20T16:28:51.622Z,4.37
2023-05-20T16:31:18.301Z,4.53
2023-05-20T16:33:44.816Z,3.93
2023-05-20T16:36:11.674Z,2.73
2023-05-20T16:38:38.181Z,3.43
2023-05-20T16:41:04.873Z,3.23
2023-05-20T16:43:31.369Z,3.47
2023-05-20T16:45:58.353Z,4.07
2023-05-20T16:48:24.854Z,3.17
2023-05-20T16:50:51.542Z,3.23
2023-05-20T16:53:18.031Z,3.93
2023-05-20T16:55:44.949Z,4.63
2023-05-20T16:58:11.431Z,4.40
2023-05-20T17:00:37.913Z,3.20
2023-05-20T17:03:04.964Z,4.20
2023-05-20T17:05:31.523Z,5.00
2023-05-20T17:07:58.387Z,2.80
2023-05-20T17:10:25.049Z,4.13
2023-05-20T17:12:51.940Z,4.90
2023-05-20T17:15:18.454Z,3.63
2023-05-20T17:17:45.394Z,3.87
2023-05-20T17:20:12.289Z,3.17
2023-05-20T17:22:38.949Z,3.77
2023-05-20T17:25:06.125Z,4.33
2023-05-20T17:27:32.807Z,3.73
2023-05-20T17:29:59.318Z,3.63
2023-05-20T17:32:26.362Z,3.30
2023-05-20T17:34:53.238Z,6.97
2023-05-20T17:37:19.722Z,4.47
2023-05-20T17:39:46.636Z,3.30
2023-05-20T17:42:13.128Z,2.87
2023-05-20T17:44:39.801Z,3.87
2023-05-20T17:47:06.406Z,3.27
2023-05-20T17:49:33.318Z,4.03
2023-05-20T17:52:00.190Z,4.70
2023-05-20T17:54:26.682Z,3.60
2023-05-20T17:56:53.223Z,3.10
2023-05-20T17:59:19.867Z,3.73
2023-05-20T18:01:46.738Z,3.80
2023-05-20T18:04:13.433Z,3.57
2023-05-20T18:06:40.562Z,3.33
2023-05-20T18:09:07.473Z,3.50
2023-05-20T18:11:34.694Z,3.80
2023-05-20T18:14:02.659Z,4.57
2023-05-20T18:16:30.392Z,4.23
2023-05-20T18:18:58.006Z,3.33
2023-05-20T18:21:24.992Z,3.10
2023-05-20T18:23:52.313Z,4.30
2023-05-20T18:26:18.842Z,3.93
2023-05-20T18:28:45.730Z,4.30
2023-05-20T18:31:12.234Z,3.17
2023-05-20T18:33:39.308Z,3.00
2023-05-20T18:36:06.539Z,4.50
2023-05-20T18:38:33.190Z,4.20
2023-05-20T18:41:00.045Z,4.10
2023-05-20T18:43:26.582Z,4.60
2023-05-20T18:45:53.565Z,5.67
2023-05-20T18:48:26.681Z,3.70
2023-05-20T18:50:54.623Z,5.77
2023-05-20T18:53:21.671Z,3.40
2023-05-20T18:55:48.476Z,3.83
2023-05-20T18:58:15.467Z,4.00
2023-05-20T19:00:42.148Z,4.37
2023-05-20T19:03:09.086Z,5.40
2023-05-20T19:05:35.871Z,4.30
2023-05-20T19:08:03.007Z,3.70
2023-05-20T19:10:29.655Z,4.57
2023-05-20T19:12:56.230Z,4.47
2023-05-20T19:15:23.166Z,4.30
2023-05-20T19:17:49.836Z,4.70
2023-05-20T19:20:16.806Z,4.00
2023-05-20T19:22:43.307Z,4.37
2023-05-20T19:25:10.039Z,3.77
2023-05-20T19:27:36.567Z,4.13
2023-05-20T19:30:03.562Z,4.00
2023-05-20T19:32:30.201Z,5.40
2023-05-20T19:34:56.693Z,5.00
2023-05-20T19:37:23.396Z,5.50
2023-05-20T19:39:50.047Z,5.63
2023-05-20T19:42:17.089Z,5.10
2023-05-20T19:44:43.947Z,5.83
2023-05-20T19:47:10.903Z,5.70
2023-05-20T19:49:37.401Z,6.00
2023-05-20T19:52:04.152Z,6.07
2023-05-20T19:54:30.644Z,4.63
2023-05-20T19:56:57.494Z,4.47
2023-05-20T19:59:23.987Z,6.80
2023-05-20T20:01:50.559Z,5.67
2023-05-20T20:04:17.210Z,4.87
2023-05-20T20:06:44.311Z,5.53
2023-05-20T20:09:11.368Z,6.77
2023-05-20T20:11:37.893Z,6.60
2023-05-20T20:14:04.406Z,6.13
2023-05-20T20:16:31.410Z,6.20
2023-05-20T20:18:58.003Z,6.33
2023-05-20T20:21:24.866Z,6.73
2023-05-20T20:23:53.606Z,5.17
2023-05-20T20:26:20.329Z,6.13
2023-05-20T20:28:46.999Z,6.03
2023-05-20T20:31:13.886Z,7.47
2023-05-20T20:33:40.369Z,6.50
2023-05-20T20:36:06.872Z,6.17
2023-05-20T20:38:33.359Z,5.27
2023-05-20T20:40:59.883Z,6.90
2023-05-20T20:43:26.578Z,6.83
2023-05-20T20:45:53.255Z,7.20
2023-05-20T20:48:19.882Z,7.73
2023-05-20T20:50:46.622Z,6.10
2023-05-20T20:53:14.054Z,6.03
2023-05-20T20:55:40.606Z,7.53
2023-05-20T20:58:07.314Z,6.67
2023-05-20T21:00:33.897Z,7.03
2023-05-20T21:03:00.709Z,7.50
2023-05-20T21:05:27.247Z,6.90
2023-05-20T21:07:54.090Z,8.53
2023-05-20T21:10:20.623Z,6.13
2023-05-20T21:12:47.540Z,6.53
2023-05-20T21:15:14.433Z,7.90
2023-05-20T21:17:40.972Z,6.57
2023-05-20T21:20:08.199Z,9.13
2023-05-20T21:22:34.751Z,8.27
2023-05-20T21:25:01.631Z,8.27
2023-05-20T21:27:28.146Z,6.60
2023-05-20T21:29:54.897Z,7.90
2023-05-20T21:32:21.387Z,9.70
2023-05-20T21:34:47.955Z,9.53
2023-05-20T21:37:14.476Z,7.40
2023-05-20T21:39:40.966Z,9.10
2023-05-20T21:42:08.130Z,8.33
2023-05-20T21:44:34.628Z,8.37
2023-05-20T21:47:01.119Z,9.23
2023-05-20T21:49:27.640Z,8.10
2023-05-20T21:51:54.800Z,8.93
2023-05-20T21:54:21.286Z,10.13
2023-05-20T21:56:48.035Z,10.80
2023-05-20T21:59:14.776Z,12.40
2023-05-20T22:01:41.748Z,9.93
2023-05-20T22:04:08.377Z,10.37
2023-05-20T22:06:35.005Z,7.83
2023-05-20T22:09:02.347Z,9.13
2023-05-20T22:11:29.201Z,10.40
2023-05-20T22:13:56.043Z,10.17
2023-05-20T22:16:22.590Z,12.20
2023-05-20T22:18:49.569Z,11.33
2023-05-20T22:21:16.096Z,9.27
2023-05-20T22:23:42.581Z,10.27
2023-05-20T22:26:09.494Z,11.90
2023-05-20T22:28:35.982Z,11.07
2023-05-20T22:31:02.875Z,13.13
2023-05-20T22:33:29.388Z,9.77
2023-05-20T22:35:57.251Z,12.63
2023-05-20T22:38:24.398Z,9.67
2023-05-20T22:40:50.878Z,11.07
2023-05-20T22:43:17.588Z,9.33
2023-05-20T22:45:44.119Z,10.03
2023-05-20T22:48:11.103Z,10.77
2023-05-20T22:50:37.683Z,12.37
2023-05-20T22:53:04.545Z,10.13
2023-05-20T22:55:31.052Z,11.07
2023-05-20T22:57:57.970Z,10.43
2023-05-20T23:00:24.457Z,12.43
2023-05-20T23:02:50.994Z,12.63
2023-05-20T23:05:17.852Z,9.97
2023-05-20T23:07:44.370Z,12.83
2023-05-20T23:10:11.417Z,11.03
2023-05-20T23:12:37.925Z,10.47
2023-05-20T23:15:05.320Z,10.20
2023-05-20T23:17:31.832Z,11.60
2023-05-20T23:19:58.711Z,11.30
2023-05-20T23:22:25.206Z,12.23
2023-05-20T23:24:52.024Z,10.33
2023-05-20T23:27:18.504Z,11.07
2023-05-20T23:29:44.986Z,10.43
2023-05-20T23:32:11.873Z,10.63
2023-05-20T23:34:38.361Z,13.60
2023-05-20T23:37:05.261Z,11.03
2023-05-20T23:39:32.141Z,11.43
2023-05-20T23:41:58.634Z,11.27
2023-05-20T23:44:25.465Z,10.30
2023-05-20T23:46:51.946Z,12.17
2023-05-20T23:49:18.459Z,14.07
2023-05-20T23:51:45.354Z,11.80
2023-05-20T23:54:12.210Z,11.50
2023-05-20T23:56:38.909Z,12.27
2023-05-20T23:59:05.763Z,15.17
